sensor_id;sensor_type;location;lat;lon;timestamp;P1;durP1;ratioP1;P2;durP2;ratioP2
56045;SDS011;41913;51.030;3.706;2024-03-06T00:02:06;2.67;;;2.47;;
56045;SDS011;41913;51.030;3.706;2024-03-06T00:04:32;2.30;;;2.10;;
56045;SDS011;41913;51.030;3.706;2024-03-06T00:06:58;2.17;;;2.00;;
56045;SDS011;41913;51.030;3.706;2024-03-06T00:09:24;2.97;;;2.10;;
56045;SDS011;41913;51.030;3.706;2024-03-06T00:11:59;2.38;;;2.20;;
56045;SDS011;41913;51.030;3.706;2024-03-06T00:14:26;3.78;;;2.13;;
56045;SDS011;41913;51.030;3.706;2024-03-06T00:16:52;2.40;;;2.20;;
56045;SDS011;41913;51.030;3.706;2024-03-06T00:19:20;2.92;;;2.67;;
56045;SDS011;41913;51.030;3.706;2024-03-06T00:21:46;2.97;;;2.38;;
56045;SDS011;41913;51.030;3.706;2024-03-06T00:24:13;2.55;;;2.35;;
56045;SDS011;41913;51.030;3.706;2024-03-06T00:26:44;2.78;;;2.58;;
56045;SDS011;41913;51.030;3.706;2024-03-06T00:29:10;2.20;;;2.10;;
56045;SDS011;41913;51.030;3.706;2024-03-06T00:31:42;2.20;;;2.10;;
56045;SDS011;41913;51.030;3.706;2024-03-06T00:34:08;2.97;;;2.67;;
56045;SDS011;41913;51.030;3.706;2024-03-06T00:36:36;2.08;;;1.98;;
56045;SDS011;41913;51.030;3.706;2024-03-06T00:39:03;2.40;;;2.30;;
56045;SDS011;41913;51.030;3.706;2024-03-06T00:41:30;2.20;;;2.00;;
56045;SDS011;41913;51.030;3.706;2024-03-06T00:43:57;2.30;;;2.10;;
56045;SDS011;41913;51.030;3.706;2024-03-06T00:46:23;2.97;;;2.05;;
56045;SDS011;41913;51.030;3.706;2024-03-06T00:48:48;2.47;;;2.28;;
56045;SDS011;41913;51.030;3.706;2024-03-06T00:51:14;2.10;;;1.90;;
56045;SDS011;41913;51.030;3.706;2024-03-06T00:53:40;2.45;;;2.17;;
56045;SDS011;41913;51.030;3.706;2024-03-06T00:56:06;2.58;;;2.38;;
56045;SDS011;41913;51.030;3.706;2024-03-06T00:58:32;2.13;;;2.03;;
56045;SDS011;41913;51.030;3.706;2024-03-06T01:01:00;2.20;;;2.10;;
56045;SDS011;41913;51.030;3.706;2024-03-06T01:03:26;2.17;;;1.70;;
56045;SDS011;41913;51.030;3.706;2024-03-06T01:05:52;2.55;;;2.20;;
56045;SDS011;41913;51.030;3.706;2024-03-06T01:08:18;2.30;;;2.20;;
56045;SDS011;41913;51.030;3.706;2024-03-06T01:10:44;2.22;;;2.13;;
56045;SDS011;41913;51.030;3.706;2024-03-06T01:13:10;2.20;;;2.10;;
56045;SDS011;41913;51.030;3.706;2024-03-06T01:15:37;1.75;;;1.65;;
56045;SDS011;41913;51.030;3.706;2024-03-06T01:18:03;1.77;;;1.67;;
56045;SDS011;41913;51.030;3.706;2024-03-06T01:20:31;2.05;;;1.95;;
56045;SDS011;41913;51.030;3.706;2024-03-06T01:23:03;2.00;;;1.90;;
56045;SDS011;41913;51.030;3.706;2024-03-06T01:25:30;1.85;;;1.75;;
56045;SDS011;41913;51.030;3.706;2024-03-06T01:27:56;2.30;;;2.10;;
56045;SDS011;41913;51.030;3.706;2024-03-06T01:30:22;1.80;;;1.73;;
56045;SDS011;41913;51.030;3.706;2024-03-06T01:32:49;2.38;;;2.17;;
56045;SDS011;41913;51.030;3.706;2024-03-06T01:35:14;2.17;;;2.08;;
56045;SDS011;41913;51.030;3.706;2024-03-06T01:37:40;1.88;;;1.88;;
56045;SDS011;41913;51.030;3.706;2024-03-06T01:40:06;2.63;;;2.28;;
56045;SDS011;41913;51.030;3.706;2024-03-06T01:42:34;2.30;;;2.20;;
56045;SDS011;41913;51.030;3.706;2024-03-06T01:44:59;1.83;;;1.73;;
56045;SDS011;41913;51.030;3.706;2024-03-06T01:47:27;1.98;;;1.85;;
56045;SDS011;41913;51.030;3.706;2024-03-06T01:49:53;1.77;;;1.67;;
56045;SDS011;41913;51.030;3.706;2024-03-06T01:52:19;4.65;;;2.28;;
56045;SDS011;41913;51.030;3.706;2024-03-06T01:54:47;1.83;;;1.73;;
56045;SDS011;41913;51.030;3.706;2024-03-06T01:57:15;2.00;;;1.90;;
56045;SDS011;41913;51.030;3.706;2024-03-06T01:59:42;1.80;;;1.80;;
56045;SDS011;41913;51.030;3.706;2024-03-06T02:02:08;2.20;;;2.10;;
56045;SDS011;41913;51.030;3.706;2024-03-06T02:04:36;1.80;;;1.70;;
56045;SDS011;41913;51.030;3.706;2024-03-06T02:07:03;2.35;;;2.15;;
56045;SDS011;41913;51.030;3.706;2024-03-06T02:09:32;1.95;;;1.88;;
56045;SDS011;41913;51.030;3.706;2024-03-06T02:11:58;1.80;;;1.70;;
56045;SDS011;41913;51.030;3.706;2024-03-06T02:14:23;2.25;;;2.15;;
56045;SDS011;41913;51.030;3.706;2024-03-06T02:16:49;3.45;;;2.08;;
56045;SDS011;41913;51.030;3.706;2024-03-06T02:19:16;1.98;;;1.88;;
56045;SDS011;41913;51.030;3.706;2024-03-06T02:21:42;1.80;;;1.70;;
56045;SDS011;41913;51.030;3.706;2024-03-06T02:24:09;1.48;;;1.42;;
56045;SDS011;41913;51.030;3.706;2024-03-06T02:26:37;1.83;;;1.73;;
56045;SDS011;41913;51.030;3.706;2024-03-06T02:29:03;2.22;;;2.13;;
56045;SDS011;41913;51.030;3.706;2024-03-06T02:31:32;1.52;;;1.42;;
56045;SDS011;41913;51.030;3.706;2024-03-06T02:33:58;1.77;;;1.70;;
56045;SDS011;41913;51.030;3.706;2024-03-06T02:36:24;2.10;;;2.00;;
56045;SDS011;41913;51.030;3.706;2024-03-06T02:38:51;2.20;;;1.77;;
56045;SDS011;41913;51.030;3.706;2024-03-06T02:41:16;2.65;;;2.45;;
56045;SDS011;41913;51.030;3.706;2024-03-06T02:43:42;1.90;;;1.80;;
56045;SDS011;41913;51.030;3.706;2024-03-06T02:46:08;1.85;;;1.75;;
56045;SDS011;41913;51.030;3.706;2024-03-06T02:48:34;1.95;;;1.85;;
56045;SDS011;41913;51.030;3.706;2024-03-06T02:51:00;1.90;;;1.80;;
56045;SDS011;41913;51.030;3.706;2024-03-06T02:53:26;2.20;;;2.00;;
56045;SDS011;41913;51.030;3.706;2024-03-06T02:55:52;2.45;;;2.25;;
56045;SDS011;41913;51.030;3.706;2024-03-06T02:58:18;1.90;;;1.80;;
56045;SDS011;41913;51.030;3.706;2024-03-06T03:00:44;2.33;;;2.22;;
56045;SDS011;41913;51.030;3.706;2024-03-06T03:03:12;1.80;;;1.70;;
56045;SDS011;41913;51.030;3.706;2024-03-06T03:05:38;2.28;;;1.73;;
56045;SDS011;41913;51.030;3.706;2024-03-06T03:08:04;2.47;;;2.28;;
56045;SDS011;41913;51.030;3.706;2024-03-06T03:10:31;2.10;;;2.00;;
56045;SDS011;41913;51.030;3.706;2024-03-06T03:12:57;1.70;;;1.70;;
56045;SDS011;41913;51.030;3.706;2024-03-06T03:15:22;1.92;;;1.83;;
56045;SDS011;41913;51.030;3.706;2024-03-06T03:17:48;2.13;;;1.50;;
56045;SDS011;41913;51.030;3.706;2024-03-06T03:20:14;2.00;;;1.90;;
56045;SDS011;41913;51.030;3.706;2024-03-06T03:22:42;1.67;;;1.58;;
56045;SDS011;41913;51.030;3.706;2024-03-06T03:25:09;1.65;;;1.55;;
56045;SDS011;41913;51.030;3.706;2024-03-06T03:27:37;1.90;;;1.90;;
56045;SDS011;41913;51.030;3.706;2024-03-06T03:30:09;1.83;;;1.73;;
56045;SDS011;41913;51.030;3.706;2024-03-06T03:32:36;1.73;;;1.70;;
56045;SDS011;41913;51.030;3.706;2024-03-06T03:35:04;1.73;;;1.73;;
56045;SDS011;41913;51.030;3.706;2024-03-06T03:37:31;1.75;;;1.65;;
56045;SDS011;41913;51.030;3.706;2024-03-06T03:39:57;1.95;;;1.85;;
56045;SDS011;41913;51.030;3.706;2024-03-06T03:42:23;1.83;;;1.80;;
56045;SDS011;41913;51.030;3.706;2024-03-06T03:44:49;2.03;;;1.83;;
56045;SDS011;41913;51.030;3.706;2024-03-06T03:47:15;3.53;;;1.95;;
56045;SDS011;41913;51.030;3.706;2024-03-06T03:49:41;2.13;;;2.00;;
56045;SDS011;41913;51.030;3.706;2024-03-06T03:52:07;2.10;;;2.00;;
56045;SDS011;41913;51.030;3.706;2024-03-06T03:54:33;4.15;;;2.15;;
56045;SDS011;41913;51.030;3.706;2024-03-06T03:57:00;2.67;;;1.95;;
56045;SDS011;41913;51.030;3.706;2024-03-06T03:59:26;1.70;;;1.60;;
56045;SDS011;41913;51.030;3.706;2024-03-06T04:01:52;1.55;;;1.48;;
56045;SDS011;41913;51.030;3.706;2024-03-06T04:04:19;1.85;;;1.75;;
56045;SDS011;41913;51.030;3.706;2024-03-06T04:06:46;3.15;;;2.05;;
56045;SDS011;41913;51.030;3.706;2024-03-06T04:09:12;3.13;;;2.22;;
56045;SDS011;41913;51.030;3.706;2024-03-06T04:11:39;2.08;;;1.98;;
56045;SDS011;41913;51.030;3.706;2024-03-06T04:14:06;1.40;;;1.40;;
56045;SDS011;41913;51.030;3.706;2024-03-06T04:16:32;2.10;;;2.00;;
56045;SDS011;41913;51.030;3.706;2024-03-06T04:18:59;2.03;;;1.92;;
56045;SDS011;41913;51.030;3.706;2024-03-06T04:21:26;2.33;;;2.13;;
56045;SDS011;41913;51.030;3.706;2024-03-06T04:23:52;2.10;;;2.05;;
56045;SDS011;41913;51.030;3.706;2024-03-06T04:26:17;2.83;;;2.05;;
56045;SDS011;41913;51.030;3.706;2024-03-06T04:28:43;1.95;;;1.85;;
56045;SDS011;41913;51.030;3.706;2024-03-06T04:31:10;2.03;;;1.92;;
56045;SDS011;41913;51.030;3.706;2024-03-06T04:33:36;2.55;;;2.33;;
56045;SDS011;41913;51.030;3.706;2024-03-06T04:36:02;1.98;;;1.88;;
56045;SDS011;41913;51.030;3.706;2024-03-06T04:38:30;2.72;;;1.90;;
56045;SDS011;41913;51.030;3.706;2024-03-06T04:40:57;2.53;;;2.22;;
56045;SDS011;41913;51.030;3.706;2024-03-06T04:43:23;3.25;;;2.15;;
56045;SDS011;41913;51.030;3.706;2024-03-06T04:45:49;1.95;;;1.85;;
56045;SDS011;41913;51.030;3.706;2024-03-06T04:48:15;4.43;;;2.33;;
56045;SDS011;41913;51.030;3.706;2024-03-06T04:50:41;2.15;;;2.03;;
56045;SDS011;41913;51.030;3.706;2024-03-06T04:53:06;2.40;;;2.05;;
56045;SDS011;41913;51.030;3.706;2024-03-06T04:55:32;2.22;;;2.10;;
56045;SDS011;41913;51.030;3.706;2024-03-06T04:58:02;2.90;;;2.10;;
56045;SDS011;41913;51.030;3.706;2024-03-06T05:00:28;2.75;;;2.20;;
56045;SDS011;41913;51.030;3.706;2024-03-06T05:02:54;2.45;;;1.88;;
56045;SDS011;41913;51.030;3.706;2024-03-06T05:05:21;2.20;;;2.10;;
56045;SDS011;41913;51.030;3.706;2024-03-06T05:07:47;1.90;;;1.80;;
56045;SDS011;41913;51.030;3.706;2024-03-06T05:10:14;2.42;;;2.22;;
56045;SDS011;41913;51.030;3.706;2024-03-06T05:12:41;1.95;;;1.85;;
56045;SDS011;41913;51.030;3.706;2024-03-06T05:15:08;2.00;;;1.90;;
56045;SDS011;41913;51.030;3.706;2024-03-06T05:17:35;1.80;;;1.70;;
56045;SDS011;41913;51.030;3.706;2024-03-06T05:20:01;2.10;;;2.00;;
56045;SDS011;41913;51.030;3.706;2024-03-06T05:22:28;2.25;;;2.15;;
56045;SDS011;41913;51.030;3.706;2024-03-06T05:24:54;2.33;;;2.13;;
56045;SDS011;41913;51.030;3.706;2024-03-06T05:27:20;2.95;;;2.30;;
56045;SDS011;41913;51.030;3.706;2024-03-06T05:29:47;1.92;;;1.83;;
56045;SDS011;41913;51.030;3.706;2024-03-06T05:32:12;2.40;;;2.20;;
56045;SDS011;41913;51.030;3.706;2024-03-06T05:34:38;2.20;;;2.10;;
56045;SDS011;41913;51.030;3.706;2024-03-06T05:37:04;2.30;;;2.20;;
56045;SDS011;41913;51.030;3.706;2024-03-06T05:39:31;2.28;;;2.10;;
56045;SDS011;41913;51.030;3.706;2024-03-06T05:42:01;2.38;;;2.17;;
56045;SDS011;41913;51.030;3.706;2024-03-06T05:44:28;2.70;;;2.50;;
56045;SDS011;41913;51.030;3.706;2024-03-06T05:47:03;3.35;;;2.33;;
56045;SDS011;41913;51.030;3.706;2024-03-06T05:49:29;1.98;;;1.88;;
56045;SDS011;41913;51.030;3.706;2024-03-06T05:51:55;2.22;;;1.98;;
56045;SDS011;41913;51.030;3.706;2024-03-06T05:54:21;5.53;;;2.83;;
56045;SDS011;41913;51.030;3.706;2024-03-06T05:56:48;2.40;;;2.20;;
56045;SDS011;41913;51.030;3.706;2024-03-06T05:59:18;2.28;;;2.10;;
56045;SDS011;41913;51.030;3.706;2024-03-06T06:01:45;2.45;;;2.25;;
56045;SDS011;41913;51.030;3.706;2024-03-06T06:04:11;2.47;;;2.22;;
56045;SDS011;41913;51.030;3.706;2024-03-06T06:06:39;2.65;;;2.45;;
56045;SDS011;41913;51.030;3.706;2024-03-06T06:09:04;2.55;;;2.35;;
56045;SDS011;41913;51.030;3.706;2024-03-06T06:11:31;2.67;;;2.50;;
56045;SDS011;41913;51.030;3.706;2024-03-06T06:13:58;4.15;;;2.83;;
56045;SDS011;41913;51.030;3.706;2024-03-06T06:16:24;4.03;;;2.72;;
56045;SDS011;41913;51.030;3.706;2024-03-06T06:18:50;3.30;;;3.05;;
56045;SDS011;41913;51.030;3.706;2024-03-06T06:21:17;3.17;;;2.70;;
56045;SDS011;41913;51.030;3.706;2024-03-06T06:23:43;3.80;;;3.03;;
56045;SDS011;41913;51.030;3.706;2024-03-06T06:26:11;4.82;;;3.55;;
56045;SDS011;41913;51.030;3.706;2024-03-06T06:28:37;8.88;;;5.05;;
56045;SDS011;41913;51.030;3.706;2024-03-06T06:31:05;6.35;;;3.90;;
56045;SDS011;41913;51.030;3.706;2024-03-06T06:33:32;6.00;;;4.43;;
56045;SDS011;41913;51.030;3.706;2024-03-06T06:35:58;17.90;;;5.10;;
56045;SDS011;41913;51.030;3.706;2024-03-06T06:38:24;33.05;;;5.70;;
56045;SDS011;41913;51.030;3.706;2024-03-06T06:40:51;20.35;;;5.82;;
56045;SDS011;41913;51.030;3.706;2024-03-06T06:43:17;33.80;;;7.25;;
56045;SDS011;41913;51.030;3.706;2024-03-06T06:45:43;22.05;;;6.18;;
56045;SDS011;41913;51.030;3.706;2024-03-06T06:48:09;35.67;;;8.82;;
56045;SDS011;41913;51.030;3.706;2024-03-06T06:50:37;18.10;;;8.20;;
56045;SDS011;41913;51.030;3.706;2024-03-06T06:53:03;31.65;;;7.72;;
56045;SDS011;41913;51.030;3.706;2024-03-06T06:55:29;19.88;;;7.88;;
56045;SDS011;41913;51.030;3.706;2024-03-06T06:57:56;13.55;;;7.07;;
56045;SDS011;41913;51.030;3.706;2024-03-06T07:00:21;13.60;;;7.20;;
56045;SDS011;41913;51.030;3.706;2024-03-06T07:02:48;13.57;;;6.13;;
56045;SDS011;41913;51.030;3.706;2024-03-06T07:05:15;13.73;;;6.60;;
56045;SDS011;41913;51.030;3.706;2024-03-06T07:07:41;12.15;;;6.13;;
56045;SDS011;41913;51.030;3.706;2024-03-06T07:10:07;17.95;;;6.85;;
56045;SDS011;41913;51.030;3.706;2024-03-06T07:12:33;15.43;;;7.13;;
56045;SDS011;41913;51.030;3.706;2024-03-06T07:15:00;19.88;;;6.72;;
56045;SDS011;41913;51.030;3.706;2024-03-06T07:17:27;21.92;;;7.85;;
56045;SDS011;41913;51.030;3.706;2024-03-06T07:19:53;48.80;;;9.35;;
56045;SDS011;41913;51.030;3.706;2024-03-06T07:22:19;23.05;;;9.75;;
56045;SDS011;41913;51.030;3.706;2024-03-06T07:24:45;21.85;;;8.85;;
56045;SDS011;41913;51.030;3.706;2024-03-06T07:27:11;25.13;;;8.60;;
56045;SDS011;41913;51.030;3.706;2024-03-06T07:29:37;15.07;;;8.93;;
56045;SDS011;41913;51.030;3.706;2024-03-06T07:32:03;15.85;;;8.43;;
56045;SDS011;41913;51.030;3.706;2024-03-06T07:34:32;17.65;;;8.75;;
56045;SDS011;41913;51.030;3.706;2024-03-06T07:36:58;15.98;;;8.90;;
56045;SDS011;41913;51.030;3.706;2024-03-06T07:39:25;15.85;;;8.55;;
56045;SDS011;41913;51.030;3.706;2024-03-06T07:41:51;17.83;;;8.00;;
56045;SDS011;41913;51.030;3.706;2024-03-06T07:44:17;14.45;;;8.65;;
56045;SDS011;41913;51.030;3.706;2024-03-06T07:46:43;15.20;;;7.15;;
56045;SDS011;41913;51.030;3.706;2024-03-06T07:49:09;16.33;;;8.55;;
56045;SDS011;41913;51.030;3.706;2024-03-06T07:51:35;20.70;;;8.98;;
56045;SDS011;41913;51.030;3.706;2024-03-06T07:54:03;13.73;;;9.15;;
56045;SDS011;41913;51.030;3.706;2024-03-06T07:56:29;13.90;;;8.30;;
56045;SDS011;41913;51.030;3.706;2024-03-06T07:58:55;13.38;;;8.65;;
56045;SDS011;41913;51.030;3.706;2024-03-06T08:01:21;17.05;;;9.38;;
56045;SDS011;41913;51.030;3.706;2024-03-06T08:03:49;15.85;;;8.90;;
56045;SDS011;41913;51.030;3.706;2024-03-06T08:06:16;17.40;;;8.40;;
56045;SDS011;41913;51.030;3.706;2024-03-06T08:08:43;11.82;;;7.93;;
56045;SDS011;41913;51.030;3.706;2024-03-06T08:11:12;11.75;;;8.15;;
56045;SDS011;41913;51.030;3.706;2024-03-06T08:13:39;10.48;;;8.23;;
56045;SDS011;41913;51.030;3.706;2024-03-06T08:16:05;13.20;;;8.70;;
56045;SDS011;41913;51.030;3.706;2024-03-06T08:18:34;14.10;;;8.55;;
56045;SDS011;41913;51.030;3.706;2024-03-06T08:21:01;20.92;;;9.35;;
56045;SDS011;41913;51.030;3.706;2024-03-06T08:23:30;12.48;;;8.60;;
56045;SDS011;41913;51.030;3.706;2024-03-06T08:25:56;13.70;;;8.68;;
56045;SDS011;41913;51.030;3.706;2024-03-06T08:28:22;12.85;;;8.43;;
56045;SDS011;41913;51.030;3.706;2024-03-06T08:30:48;11.20;;;8.75;;
56045;SDS011;41913;51.030;3.706;2024-03-06T08:33:14;11.45;;;7.88;;
56045;SDS011;41913;51.030;3.706;2024-03-06T08:35:46;12.63;;;9.20;;
56045;SDS011;41913;51.030;3.706;2024-03-06T08:38:11;14.15;;;9.90;;
56045;SDS011;41913;51.030;3.706;2024-03-06T08:40:38;13.80;;;8.82;;
56045;SDS011;41913;51.030;3.706;2024-03-06T08:43:07;14.18;;;8.77;;
56045;SDS011;41913;51.030;3.706;2024-03-06T08:45:34;13.88;;;8.88;;
56045;SDS011;41913;51.030;3.706;2024-03-06T08:47:59;15.55;;;9.38;;
56045;SDS011;41913;51.030;3.706;2024-03-06T08:50:25;11.52;;;8.50;;
56045;SDS011;41913;51.030;3.706;2024-03-06T08:52:51;11.38;;;9.55;;
56045;SDS011;41913;51.030;3.706;2024-03-06T08:55:17;12.63;;;8.82;;
56045;SDS011;41913;51.030;3.706;2024-03-06T08:57:43;12.95;;;9.38;;
56045;SDS011;41913;51.030;3.706;2024-03-06T09:00:09;14.35;;;9.73;;
56045;SDS011;41913;51.030;3.706;2024-03-06T09:02:39;13.60;;;9.43;;
56045;SDS011;41913;51.030;3.706;2024-03-06T09:05:06;14.15;;;8.90;;
56045;SDS011;41913;51.030;3.706;2024-03-06T09:07:34;13.15;;;9.23;;
56045;SDS011;41913;51.030;3.706;2024-03-06T09:10:12;11.63;;;8.50;;
56045;SDS011;41913;51.030;3.706;2024-03-06T09:12:39;12.70;;;9.23;;
56045;SDS011;41913;51.030;3.706;2024-03-06T09:15:05;13.32;;;9.23;;
56045;SDS011;41913;51.030;3.706;2024-03-06T09:17:36;11.93;;;9.10;;
56045;SDS011;41913;51.030;3.706;2024-03-06T09:20:03;13.60;;;8.80;;
56045;SDS011;41913;51.030;3.706;2024-03-06T09:22:40;12.50;;;9.05;;
56045;SDS011;41913;51.030;3.706;2024-03-06T09:25:08;16.88;;;9.68;;
56045;SDS011;41913;51.030;3.706;2024-03-06T09:27:35;13.00;;;9.95;;
56045;SDS011;41913;51.030;3.706;2024-03-06T09:30:01;11.88;;;9.00;;
56045;SDS011;41913;51.030;3.706;2024-03-06T09:32:28;13.57;;;9.48;;
56045;SDS011;41913;51.030;3.706;2024-03-06T09:34:54;14.57;;;8.38;;
56045;SDS011;41913;51.030;3.706;2024-03-06T09:37:20;14.80;;;9.45;;
56045;SDS011;41913;51.030;3.706;2024-03-06T09:39:46;17.13;;;9.48;;
56045;SDS011;41913;51.030;3.706;2024-03-06T09:42:12;12.45;;;8.10;;
56045;SDS011;41913;51.030;3.706;2024-03-06T09:44:41;10.52;;;8.52;;
56045;SDS011;41913;51.030;3.706;2024-03-06T09:47:08;13.02;;;9.30;;
56045;SDS011;41913;51.030;3.706;2024-03-06T09:49:38;12.50;;;8.07;;
56045;SDS011;41913;51.030;3.706;2024-03-06T09:52:05;14.00;;;8.55;;
56045;SDS011;41913;51.030;3.706;2024-03-06T09:54:31;10.45;;;8.30;;
56045;SDS011;41913;51.030;3.706;2024-03-06T09:56:57;11.27;;;9.38;;
56045;SDS011;41913;51.030;3.706;2024-03-06T09:59:24;13.35;;;9.27;;
56045;SDS011;41913;51.030;3.706;2024-03-06T10:01:56;10.95;;;7.57;;
56045;SDS011;41913;51.030;3.706;2024-03-06T10:04:24;10.75;;;7.95;;
56045;SDS011;41913;51.030;3.706;2024-03-06T10:06:54;13.00;;;7.82;;
56045;SDS011;41913;51.030;3.706;2024-03-06T10:09:24;11.95;;;8.05;;
56045;SDS011;41913;51.030;3.706;2024-03-06T10:11:51;15.82;;;7.70;;
56045;SDS011;41913;51.030;3.706;2024-03-06T10:14:22;12.57;;;7.90;;
56045;SDS011;41913;51.030;3.706;2024-03-06T10:16:54;11.35;;;7.22;;
56045;SDS011;41913;51.030;3.706;2024-03-06T10:21:53;9.98;;;7.15;;
56045;SDS011;41913;51.030;3.706;2024-03-06T10:24:27;8.50;;;6.85;;
56045;SDS011;41913;51.030;3.706;2024-03-06T10:26:55;8.13;;;7.22;;
56045;SDS011;41913;51.030;3.706;2024-03-06T10:29:23;14.02;;;7.18;;
56045;SDS011;41913;51.030;3.706;2024-03-06T10:31:51;8.73;;;7.35;;
56045;SDS011;41913;51.030;3.706;2024-03-06T10:34:20;9.30;;;6.93;;
56045;SDS011;41913;51.030;3.706;2024-03-06T10:36:54;6.90;;;6.28;;
56045;SDS011;41913;51.030;3.706;2024-03-06T10:39:22;8.75;;;6.82;;
56045;SDS011;41913;51.030;3.706;2024-03-06T10:41:54;7.78;;;6.57;;
56045;SDS011;41913;51.030;3.706;2024-03-06T10:44:22;10.43;;;5.95;;
56045;SDS011;41913;51.030;3.706;2024-03-06T10:47:01;8.50;;;6.38;;
56045;SDS011;41913;51.030;3.706;2024-03-06T10:49:38;8.32;;;6.30;;
56045;SDS011;41913;51.030;3.706;2024-03-06T10:52:08;6.22;;;5.65;;
56045;SDS011;41913;51.030;3.706;2024-03-06T10:54:35;7.53;;;6.00;;
56045;SDS011;41913;51.030;3.706;2024-03-06T10:57:04;7.40;;;6.63;;
56045;SDS011;41913;51.030;3.706;2024-03-06T10:59:31;10.38;;;5.90;;
56045;SDS011;41913;51.030;3.706;2024-03-06T11:01:58;10.98;;;6.18;;
56045;SDS011;41913;51.030;3.706;2024-03-06T11:04:28;11.07;;;7.80;;
56045;SDS011;41913;51.030;3.706;2024-03-06T11:07:02;7.40;;;5.72;;
56045;SDS011;41913;51.030;3.706;2024-03-06T11:09:35;7.72;;;5.15;;
56045;SDS011;41913;51.030;3.706;2024-03-06T11:12:03;5.80;;;5.30;;
56045;SDS011;41913;51.030;3.706;2024-03-06T11:14:33;10.27;;;5.35;;
56045;SDS011;41913;51.030;3.706;2024-03-06T11:19:29;6.13;;;5.57;;
56045;SDS011;41913;51.030;3.706;2024-03-06T11:21:56;7.70;;;5.68;;
56045;SDS011;41913;51.030;3.706;2024-03-06T11:24:22;10.27;;;5.22;;
56045;SDS011;41913;51.030;3.706;2024-03-06T11:26:57;5.97;;;5.35;;
56045;SDS011;41913;51.030;3.706;2024-03-06T11:29:28;5.53;;;4.80;;
56045;SDS011;41913;51.030;3.706;2024-03-06T11:32:07;6.43;;;4.65;;
56045;SDS011;41913;51.030;3.706;2024-03-06T11:34:34;6.13;;;5.10;;
56045;SDS011;41913;51.030;3.706;2024-03-06T11:37:04;5.85;;;4.88;;
56045;SDS011;41913;51.030;3.706;2024-03-06T11:39:36;4.68;;;4.00;;
56045;SDS011;41913;51.030;3.706;2024-03-06T11:42:03;4.85;;;4.35;;
56045;SDS011;41913;51.030;3.706;2024-03-06T11:44:36;5.57;;;4.45;;
56045;SDS011;41913;51.030;3.706;2024-03-06T11:47:07;4.53;;;4.10;;
56045;SDS011;41913;51.030;3.706;2024-03-06T11:49:34;4.03;;;3.50;;
56045;SDS011;41913;51.030;3.706;2024-03-06T11:52:04;4.00;;;3.58;;
56045;SDS011;41913;51.030;3.706;2024-03-06T11:54:34;4.38;;;3.80;;
56045;SDS011;41913;51.030;3.706;2024-03-06T11:57:01;33.60;;;6.53;;
56045;SDS011;41913;51.030;3.706;2024-03-06T11:59:28;35.45;;;5.25;;
56045;SDS011;41913;51.030;3.706;2024-03-06T12:02:00;63.72;;;7.18;;
56045;SDS011;41913;51.030;3.706;2024-03-06T12:04:27;45.55;;;5.53;;
56045;SDS011;41913;51.030;3.706;2024-03-06T12:06:56;19.95;;;4.97;;
56045;SDS011;41913;51.030;3.706;2024-03-06T12:09:24;42.35;;;5.28;;
56045;SDS011;41913;51.030;3.706;2024-03-06T12:11:51;23.33;;;4.15;;
56045;SDS011;41913;51.030;3.706;2024-03-06T12:14:17;5.70;;;3.20;;
56045;SDS011;41913;51.030;3.706;2024-03-06T12:16:54;12.20;;;3.17;;
56045;SDS011;41913;51.030;3.706;2024-03-06T12:19:21;21.63;;;4.30;;
56045;SDS011;41913;51.030;3.706;2024-03-06T12:21:47;4.75;;;3.08;;
56045;SDS011;41913;51.030;3.706;2024-03-06T12:24:16;17.13;;;4.00;;
56045;SDS011;41913;51.030;3.706;2024-03-06T12:26:45;6.75;;;2.40;;
56045;SDS011;41913;51.030;3.706;2024-03-06T12:29:16;8.45;;;3.08;;
56045;SDS011;41913;51.030;3.706;2024-03-06T12:31:46;6.00;;;2.25;;
56045;SDS011;41913;51.030;3.706;2024-03-06T12:34:15;7.20;;;3.72;;
56045;SDS011;41913;51.030;3.706;2024-03-06T12:36:44;4.75;;;2.17;;
56045;SDS011;41913;51.030;3.706;2024-03-06T12:39:14;9.60;;;3.05;;
56045;SDS011;41913;51.030;3.706;2024-03-06T12:41:43;7.30;;;3.38;;
56045;SDS011;41913;51.030;3.706;2024-03-06T12:44:10;4.22;;;2.78;;
56045;SDS011;41913;51.030;3.706;2024-03-06T12:46:37;7.70;;;2.95;;
56045;SDS011;41913;51.030;3.706;2024-03-06T12:49:03;9.70;;;2.78;;
56045;SDS011;41913;51.030;3.706;2024-03-06T12:51:28;3.50;;;2.47;;
56045;SDS011;41913;51.030;3.706;2024-03-06T12:53:55;14.75;;;2.78;;
56045;SDS011;41913;51.030;3.706;2024-03-06T12:56:21;2.47;;;2.05;;
56045;SDS011;41913;51.030;3.706;2024-03-06T12:58:47;2.22;;;2.03;;
56045;SDS011;41913;51.030;3.706;2024-03-06T13:01:13;12.43;;;2.88;;
56045;SDS011;41913;51.030;3.706;2024-03-06T13:03:39;2.85;;;1.80;;
56045;SDS011;41913;51.030;3.706;2024-03-06T13:06:05;2.83;;;2.17;;
56045;SDS011;41913;51.030;3.706;2024-03-06T13:08:31;3.85;;;1.85;;
56045;SDS011;41913;51.030;3.706;2024-03-06T13:10:57;3.17;;;1.88;;
56045;SDS011;41913;51.030;3.706;2024-03-06T13:13:23;7.55;;;1.83;;
56045;SDS011;41913;51.030;3.706;2024-03-06T13:15:52;1.90;;;1.77;;
56045;SDS011;41913;51.030;3.706;2024-03-06T13:18:18;2.17;;;1.77;;
56045;SDS011;41913;51.030;3.706;2024-03-06T13:20:44;3.88;;;1.90;;
56045;SDS011;41913;51.030;3.706;2024-03-06T13:23:10;7.55;;;2.95;;
56045;SDS011;41913;51.030;3.706;2024-03-06T13:25:37;7.18;;;2.50;;
56045;SDS011;41913;51.030;3.706;2024-03-06T13:28:03;7.20;;;2.67;;
56045;SDS011;41913;51.030;3.706;2024-03-06T13:30:30;7.75;;;2.60;;
56045;SDS011;41913;51.030;3.706;2024-03-06T13:32:58;3.05;;;2.20;;
56045;SDS011;41913;51.030;3.706;2024-03-06T13:35:24;3.97;;;3.22;;
56045;SDS011;41913;51.030;3.706;2024-03-06T13:37:50;5.90;;;2.78;;
56045;SDS011;41913;51.030;3.706;2024-03-06T13:40:16;5.25;;;2.22;;
56045;SDS011;41913;51.030;3.706;2024-03-06T13:42:42;3.60;;;2.50;;
56045;SDS011;41913;51.030;3.706;2024-03-06T13:45:09;3.08;;;2.88;;
56045;SDS011;41913;51.030;3.706;2024-03-06T13:47:39;6.07;;;2.15;;
56045;SDS011;41913;51.030;3.706;2024-03-06T13:50:07;3.75;;;2.50;;
56045;SDS011;41913;51.030;3.706;2024-03-06T13:52:34;7.30;;;2.53;;
56045;SDS011;41913;51.030;3.706;2024-03-06T13:55:01;4.05;;;1.85;;
56045;SDS011;41913;51.030;3.706;2024-03-06T13:57:30;5.00;;;2.05;;
56045;SDS011;41913;51.030;3.706;2024-03-06T13:59:59;3.88;;;1.45;;
56045;SDS011;41913;51.030;3.706;2024-03-06T14:02:37;3.60;;;1.88;;
56045;SDS011;41913;51.030;3.706;2024-03-06T14:05:03;2.30;;;1.50;;
56045;SDS011;41913;51.030;3.706;2024-03-06T14:07:30;1.90;;;1.30;;
56045;SDS011;41913;51.030;3.706;2024-03-06T14:09:56;1.90;;;1.45;;
56045;SDS011;41913;51.030;3.706;2024-03-06T14:12:22;4.38;;;1.55;;
56045;SDS011;41913;51.030;3.706;2024-03-06T14:14:49;3.33;;;1.60;;
56045;SDS011;41913;51.030;3.706;2024-03-06T14:17:14;3.65;;;1.83;;
56045;SDS011;41913;51.030;3.706;2024-03-06T14:19:40;3.22;;;1.13;;
56045;SDS011;41913;51.030;3.706;2024-03-06T14:22:10;1.15;;;1.02;;
56045;SDS011;41913;51.030;3.706;2024-03-06T14:24:36;2.38;;;1.38;;
56045;SDS011;41913;51.030;3.706;2024-03-06T14:27:02;1.20;;;1.10;;
56045;SDS011;41913;51.030;3.706;2024-03-06T14:29:32;5.20;;;0.90;;
56045;SDS011;41913;51.030;3.706;2024-03-06T14:31:58;2.72;;;1.05;;
56045;SDS011;41913;51.030;3.706;2024-03-06T14:34:24;0.80;;;0.80;;
56045;SDS011;41913;51.030;3.706;2024-03-06T14:36:50;0.90;;;0.90;;
56045;SDS011;41913;51.030;3.706;2024-03-06T14:39:17;0.80;;;0.70;;
56045;SDS011;41913;51.030;3.706;2024-03-06T14:41:51;1.30;;;1.20;;
56045;SDS011;41913;51.030;3.706;2024-03-06T14:44:17;1.38;;;0.98;;
56045;SDS011;41913;51.030;3.706;2024-03-06T14:46:43;1.58;;;1.00;;
56045;SDS011;41913;51.030;3.706;2024-03-06T14:49:09;6.30;;;1.10;;